Time;durP1;ratioP1;P1;durP2;ratioP2;P2;SDS_P1;SDS_P2;PMS_P1;PMS_P2;Temp;Humidity;BMP_temperature;BMP_pressure;BME280_temperature;BME280_humidity;BME280_pressure;Samples;Min_cycle;Max_cycle;Signal;HPM_P1;HPM_P2
2022/07/11 00:00:09;;;;;;;3.22;1.20;;;16.30;98.40;;;;;;4705961;30;20040;-86
2022/07/11 00:03:08;;;;;;;2.95;1.55;;;16.30;98.50;;;;;;4688862;30;20469;-83
2022/07/11 00:05:34;;;;;;;2.40;0.90;;;15.80;98.10;;;;;;4602938;31;20058;-82
2022/07/11 00:08:00;;;;;;;3.20;1.30;;;16.20;98.20;;;;;;4603254;31;20392;-85
2022/07/11 00:10:25;;;;;;;2.70;1.35;;;16.10;98.60;;;;;;4602331;31;20498;-84
2022/07/11 00:12:51;;;;;;;3.20;1.25;;;16.00;98.70;;;;;;4617424;31;20087;-83
2022/07/11 00:15:17;;;;;;;2.67;0.95;;;15.90;99.00;;;;;;4617266;31;20031;-84
2022/07/11 00:17:42;;;;;;;1.40;0.90;;;15.90;99.30;;;;;;4616725;31;20039;-81
2022/07/11 00:20:09;;;;;;;3.25;0.95;;;15.90;99.10;;;;;;4616895;31;20611;-83
2022/07/11 00:22:35;;;;;;;5.00;1.10;;;16.00;99.10;;;;;;4617073;31;20043;-84
2022/07/11 00:25:00;;;;;;;2.03;1.75;;;15.90;99.10;;;;;;4616444;31;20714;-86
2022/07/11 00:27:26;;;;;;;2.00;1.05;;;16.00;98.90;;;;;;4602202;31;20051;-82
2022/07/11 00:29:52;;;;;;;2.92;1.40;;;16.00;98.80;;;;;;4616990;31;20051;-84
2022/07/11 00:32:18;;;;;;;1.17;1.08;;;16.20;99.00;;;;;;4616573;31;20114;-87
2022/07/11 00:34:43;;;;;;;2.15;1.02;;;16.00;99.10;;;;;;4616647;31;20500;-85
2022/07/11 00:37:09;;;;;;;4.80;1.05;;;16.00;99.00;;;;;;4616425;31;20557;-85
2022/07/11 00:39:35;;;;;;;5.60;1.65;;;15.90;99.50;;;;;;4617122;31;20575;-85
2022/07/11 00:42:00;;;;;;;2.40;1.33;;;15.80;99.30;;;;;;4642865;30;20041;-84
2022/07/11 00:44:26;;;;;;;3.70;1.10;;;15.80;99.60;;;;;;4689281;30;20120;-82
2022/07/11 00:46:53;;;;;;;0.95;0.90;;;15.70;99.60;;;;;;4705299;30;20090;-85
2022/07/11 00:49:39;;;;;;;2.20;1.10;;;15.60;99.90;;;;;;4688567;30;20449;-85
2022/07/11 00:52:09;;;;;;;2.35;1.05;;;15.40;99.90;;;;;;4705417;30;20045;-85
2022/07/11 00:54:36;;;;;;;2.88;1.17;;;15.40;99.90;;;;;;4705476;30;20106;-83
2022/07/11 00:57:02;;;;;;;4.45;1.02;;;15.50;99.90;;;;;;4705698;30;20034;-85
2022/07/11 00:59:29;;;;;;;3.50;1.10;;;15.40;99.90;;;;;;4691864;30;20076;-84
2022/07/11 01:01:55;;;;;;;2.22;1.15;;;15.50;99.90;;;;;;4704688;30;20544;-83
2022/07/11 01:04:22;;;;;;;2.92;1.10;;;15.50;99.90;;;;;;4688490;30;20062;-85
2022/07/11 01:06:48;;;;;;;2.25;1.15;;;15.60;99.90;;;;;;4705069;30;20429;-84
2022/07/11 01:09:13;;;;;;;2.92;1.23;;;15.60;99.90;;;;;;4689397;30;20463;-85
2022/07/11 01:11:40;;;;;;;1.73;1.10;;;15.60;99.90;;;;;;4689586;30;20041;-85
2022/07/11 01:14:06;;;;;;;3.10;1.50;;;15.80;99.90;;;;;;4705432;30;20118;-85
2022/07/11 01:16:31;;;;;;;3.20;1.42;;;15.80;99.90;;;;;;4688957;30;20096;-82
2022/07/11 01:18:57;;;;;;;2.60;1.27;;;15.80;99.90;;;;;;4705983;30;20045;-84
2022/07/11 01:21:28;;;;;;;4.68;2.03;;;15.90;99.90;;;;;;4706894;30;20045;-83
2022/07/11 01:23:56;;;;;;;4.57;1.80;;;15.90;99.90;;;;;;4689790;30;20571;-83
2022/07/11 01:26:23;;;;;;;3.00;1.30;;;15.90;99.90;;;;;;4705140;30;20064;-86
2022/07/11 01:28:50;;;;;;;5.13;2.10;;;15.90;99.90;;;;;;4689201;30;20038;-84
2022/07/11 01:31:16;;;;;;;2.85;1.67;;;15.70;99.90;;;;;;4688860;30;20057;-85
2022/07/11 01:33:42;;;;;;;4.82;2.20;;;16.00;99.90;;;;;;4704286;30;20296;-84
2022/07/11 01:36:08;;;;;;;4.53;2.03;;;15.90;99.90;;;;;;4704449;30;20116;-84
2022/07/11 01:38:34;;;;;;;4.75;1.67;;;15.90;99.90;;;;;;4704452;30;20053;-85
2022/07/11 01:41:06;;;;;;;3.20;1.95;;;16.00;99.90;;;;;;4704066;30;20041;-85
2022/07/11 01:43:31;;;;;;;3.28;1.60;;;16.00;99.90;;;;;;4704115;30;20424;-83
2022/07/11 01:45:58;;;;;;;2.83;1.50;;;16.00;99.90;;;;;;4688327;30;20103;-84
2022/07/11 01:48:24;;;;;;;3.55;2.03;;;16.00;99.90;;;;;;4703573;30;20049;-84
2022/07/11 01:50:50;;;;;;;3.20;1.40;;;15.90;99.90;;;;;;4704142;30;20037;-83
2022/07/11 01:53:17;;;;;;;3.08;1.40;;;15.90;99.90;;;;;;4703528;30;20114;-84
2022/07/11 01:55:43;;;;;;;4.25;1.35;;;16.00;99.90;;;;;;4703616;30;20059;-81
2022/07/11 01:58:09;;;;;;;1.63;1.13;;;16.10;99.90;;;;;;4703759;30;20134;-84
2022/07/11 02:00:40;;;;;;;3.08;1.80;;;14.10;99.90;;;;;;4690442;30;20109;-85
2022/07/11 02:03:06;;;;;;;4.43;1.83;;;16.20;99.90;;;;;;4703835;30;20056;-84
2022/07/11 02:05:32;;;;;;;2.85;1.20;;;16.20;99.90;;;;;;4703925;30;20040;-83
2022/07/11 02:08:13;;;;;;;3.70;1.85;;;16.20;99.90;;;;;;4703856;30;20044;-88
2022/07/11 02:10:45;;;;;;;3.75;1.25;;;16.20;99.90;;;;;;4703595;30;20049;-83
2022/07/11 02:13:13;;;;;;;3.92;2.33;;;16.30;99.90;;;;;;4704309;30;20044;-81
2022/07/11 02:15:40;;;;;;;3.80;1.85;;;16.30;99.90;;;;;;4687580;30;20426;-83
2022/07/11 02:18:06;;;;;;;4.22;1.80;;;16.30;99.90;;;;;;4689968;30;20420;-83
2022/07/11 02:20:32;;;;;;;4.55;1.88;;;16.30;99.90;;;;;;4703344;30;20507;-84
2022/07/11 02:22:58;;;;;;;4.57;1.55;;;16.20;99.90;;;;;;4703808;30;20041;-84
2022/07/11 02:25:24;;;;;;;4.35;2.00;;;16.20;99.90;;;;;;4703619;30;20036;-82
2022/07/11 02:27:51;;;;;;;4.72;1.60;;;16.20;99.90;;;;;;4688022;30;20056;-82
2022/07/11 02:30:17;;;;;;;6.28;1.80;;;16.10;99.90;;;;;;4703600;30;20045;-82
2022/07/11 02:32:42;;;;;;;3.08;1.33;;;16.20;99.90;;;;;;4687999;30;20049;-84
2022/07/11 02:35:09;;;;;;;3.30;1.70;;;16.20;99.90;;;;;;4703381;30;20034;-83
2022/07/11 02:37:35;;;;;;;2.60;1.42;;;16.20;99.90;;;;;;4703367;30;20044;-83
2022/07/11 02:40:01;;;;;;;4.72;1.55;;;16.20;99.90;;;;;;4703457;30;20540;-83
2022/07/11 02:42:27;;;;;;;4.38;2.20;;;16.20;99.90;;;;;;4703284;30;20538;-83
2022/07/11 02:44:52;;;;;;;3.83;1.60;;;16.20;99.90;;;;;;4687454;30;20128;-83
2022/07/11 02:47:18;;;;;;;3.63;2.20;;;16.20;99.90;;;;;;4703128;30;20302;-83
2022/07/11 02:49:44;;;;;;;3.97;1.95;;;16.20;99.90;;;;;;4703336;30;20479;-85
2022/07/11 02:52:10;;;;;;;5.03;2.42;;;16.10;99.90;;;;;;4687886;30;20044;-84
2022/07/11 02:54:36;;;;;;;4.47;2.00;;;16.00;99.90;;;;;;4703286;30;20041;-84
2022/07/11 02:57:02;;;;;;;5.20;1.90;;;15.90;99.90;;;;;;4703812;30;20349;-84
2022/07/11 02:59:28;;;;;;;4.70;1.88;;;15.90;99.90;;;;;;4703206;30;20084;-80
2022/07/11 03:01:54;;;;;;;7.80;3.13;;;15.80;99.90;;;;;;4703111;30;20148;-84
2022/07/11 03:04:20;;;;;;;3.28;2.08;;;15.80;99.90;;;;;;4705660;30;20249;-83
2022/07/11 03:06:46;;;;;;;3.67;1.88;;;15.80;99.90;;;;;;4708979;30;20041;-86
2022/07/11 03:09:12;;;;;;;3.33;1.63;;;15.70;99.90;;;;;;4711286;30;20107;-83
2022/07/11 03:11:38;;;;;;;5.03;2.00;;;15.60;99.90;;;;;;4698299;30;20049;-85
2022/07/11 03:14:04;;;;;;;4.50;2.03;;;15.60;99.90;;;;;;4697213;30;20260;-84
2022/07/11 03:16:30;;;;;;;5.75;2.53;;;15.60;99.90;;;;;;4712197;30;20037;-87
2022/07/11 03:18:57;;;;;;;6.28;2.80;;;15.60;99.90;;;;;;4710347;30;20560;-84
2022/07/11 03:21:25;;;;;;;6.00;2.33;;;15.60;99.90;;;;;;4708877;30;20130;-84
2022/07/11 03:23:51;;;;;;;4.50;1.85;;;18.10;99.90;;;;;;4693416;30;20055;-84
2022/07/11 03:26:17;;;;;;;4.10;2.00;;;15.50;99.90;;;;;;4708799;30;20036;-88
2022/07/11 03:28:43;;;;;;;5.43;2.03;;;15.50;99.90;;;;;;4708609;30;20513;-85
2022/07/11 03:31:10;;;;;;;5.53;2.38;;;15.50;99.90;;;;;;4708541;30;20045;-83
2022/07/11 03:33:36;;;;;;;6.47;2.50;;;15.50;99.90;;;;;;4708040;30;20345;-85
2022/07/11 03:36:02;;;;;;;5.72;2.63;;;15.50;99.90;;;;;;4692607;30;20518;-85
2022/07/11 03:38:27;;;;;;;5.63;2.10;;;15.50;99.90;;;;;;4708491;30;20151;-83
2022/07/11 03:40:55;;;;;;;6.18;2.50;;;15.50;99.90;;;;;;4692856;30;20613;-84
2022/07/11 03:43:22;;;;;;;4.47;1.90;;;15.60;99.90;;;;;;4708733;30;20037;-85
2022/07/11 03:45:48;;;;;;;3.38;1.70;;;12.70;99.90;;;;;;4708768;30;20458;-85
2022/07/11 03:48:13;;;;;;;4.50;2.00;;;15.60;99.90;;;;;;4708758;30;20037;-84
2022/07/11 03:50:39;;;;;;;4.78;2.20;;;15.70;99.90;;;;;;4708404;30;20034;-85
2022/07/11 03:53:05;;;;;;;4.75;2.20;;;15.70;99.90;;;;;;4708508;30;20395;-83
2022/07/11 03:55:32;;;;;;;5.07;2.05;;;15.80;99.90;;;;;;4708141;30;20493;-86
2022/07/11 03:57:58;;;;;;;5.85;2.40;;;15.80;99.90;;;;;;4709425;30;20456;-84
2022/07/11 04:00:24;;;;;;;6.25;2.15;;;15.90;99.90;;;;;;4708800;30;20033;-81
2022/07/11 04:02:50;;;;;;;4.20;2.20;;;15.80;99.90;;;;;;4692772;30;20140;-83
2022/07/11 04:05:16;;;;;;;5.43;1.83;;;15.80;99.90;;;;;;4708581;30;20045;-84
2022/07/11 04:07:42;;;;;;;3.15;1.63;;;15.80;99.90;;;;;;4692593;30;20514;-84
2022/07/11 04:10:09;;;;;;;4.40;2.20;;;15.80;99.90;;;;;;4691955;30;20037;-82
2022/07/11 04:12:35;;;;;;;4.55;1.80;;;15.80;99.90;;;;;;4708305;30;20545;-84
2022/07/11 04:15:01;;;;;;;4.13;2.20;;;15.80;99.90;;;;;;4708039;30;20038;-83
2022/07/11 04:17:27;;;;;;;4.05;1.90;;;16.00;99.90;;;;;;4689506;30;20506;-85
2022/07/11 04:19:53;;;;;;;4.75;2.17;;;15.90;99.90;;;;;;4705454;30;20037;-84
2022/07/11 04:22:19;;;;;;;3.25;1.90;;;15.90;99.90;;;;;;4704896;30;20338;-84
2022/07/11 04:24:45;;;;;;;5.15;2.00;;;16.00;99.90;;;;;;4690189;30;20041;-84
2022/07/11 04:27:10;;;;;;;6.00;2.08;;;16.00;99.90;;;;;;4705399;30;20033;-80
2022/07/11 04:29:36;;;;;;;4.68;2.13;;;16.00;99.90;;;;;;4706327;30;20130;-83
2022/07/11 04:32:02;;;;;;;5.00;2.33;;;16.10;99.90;;;;;;4689113;30;20041;-82
2022/07/11 04:34:28;;;;;;;4.53;2.20;;;16.10;99.90;;;;;;4704835;30;20238;-84
2022/07/11 04:37:00;;;;;;;7.75;2.13;;;16.20;99.90;;;;;;4704753;30;20183;-83
2022/07/11 04:39:26;;;;;;;5.20;2.17;;;16.30;99.90;;;;;;4688402;30;20045;-83
2022/07/11 04:41:52;;;;;;;3.45;2.20;;;16.30;99.90;;;;;;4688677;30;20048;-85
2022/07/11 04:44:18;;;;;;;3.42;1.70;;;16.30;99.90;;;;;;4688945;30;20034;-83
2022/07/11 04:46:43;;;;;;;3.60;1.60;;;16.30;99.90;;;;;;4704504;30;20043;-81
2022/07/11 04:49:09;;;;;;;3.28;1.40;;;16.30;99.90;;;;;;4704750;30;20502;-87
2022/07/11 04:51:36;;;;;;;3.55;1.70;;;16.30;99.90;;;;;;4688668;30;20387;-83
2022/07/11 04:54:02;;;;;;;3.47;1.80;;;16.30;99.90;;;;;;4704704;30;20041;-84
2022/07/11 04:56:28;;;;;;;4.72;1.75;;;16.30;99.90;;;;;;4688699;30;20041;-84
2022/07/11 04:58:54;;;;;;;4.57;1.75;;;16.30;99.80;;;;;;4704388;30;20410;-83
2022/07/11 05:01:20;;;;;;;2.40;1.40;;;16.30;99.80;;;;;;4704072;30;20361;-84
2022/07/11 05:03:48;;;;;;;4.60;1.60;;;16.30;99.40;;;;;;4704189;30;20124;-84
2022/07/11 05:06:13;;;;;;;3.67;1.50;;;16.20;99.60;;;;;;4688484;30;20406;-84
2022/07/11 05:08:39;;;;;;;3.60;1.58;;;16.20;99.30;;;;;;4704334;30;20498;-84
2022/07/11 05:11:05;;;;;;;2.03;1.08;;;16.10;99.20;;;;;;4703736;30;20514;-83
2022/07/11 05:13:31;;;;;;;3.03;1.70;;;16.00;98.40;;;;;;4704219;30;20053;-86
2022/07/11 05:15:57;;;;;;;2.55;1.05;;;16.10;98.90;;;;;;4704261;30;20509;-84
2022/07/11 05:18:23;;;;;;;3.13;1.40;;;16.10;99.10;;;;;;4688366;30;20313;-86
2022/07/11 05:20:49;;;;;;;4.30;1.45;;;16.10;99.10;;;;;;4704117;30;20042;-83
2022/07/11 05:23:15;;;;;;;4.85;1.42;;;16.10;98.50;;;;;;4704225;30;20041;-82
2022/07/11 05:25:41;;;;;;;2.22;1.23;;;16.10;99.00;;;;;;4703775;30;20037;-84
2022/07/11 05:28:07;;;;;;;3.50;1.33;;;;;;;;;;4703540;30;20045;-83
2022/07/11 05:30:33;;;;;;;2.97;1.38;;;16.20;97.90;;;;;;4703667;30;20037;-83
2022/07/11 05:32:59;;;;;;;3.08;1.30;;;16.20;97.90;;;;;;4688111;30;20067;-85
2022/07/11 05:35:26;;;;;;;2.92;1.35;;;16.20;98.10;;;;;;4703898;30;20220;-84
2022/07/11 05:37:52;;;;;;;2.83;0.90;;;16.20;97.80;;;;;;4703915;30;20147;-81
2022/07/11 05:40:18;;;;;;;2.30;1.30;;;16.20;98.20;;;;;;4703544;30;20045;-84
2022/07/11 05:42:44;;;;;;;4.43;1.33;;;16.30;97.80;;;;;;4703341;30;20254;-85
2022/07/11 05:45:10;;;;;;;1.92;0.93;;;16.40;96.90;;;;;;4688044;30;20133;-84
2022/07/11 05:47:36;;;;;;;2.30;1.20;;;16.40;95.90;;;;;;4687575;30;20156;-84
2022/07/11 05:50:01;;;;;;;3.03;1.33;;;16.40;95.50;;;;;;4703576;30;20130;-84
2022/07/11 05:52:27;;;;;;;2.28;1.20;;;16.40;95.60;;;;;;4703491;30;20041;-84
2022/07/11 05:54:54;;;;;;;3.25;1.08;;;16.50;95.60;;;;;;4703608;30;20449;-85
2022/07/11 05:57:20;;;;;;;2.03;1.00;;;16.60;95.10;;;;;;4687583;30;20352;-83
2022/07/11 05:59:46;;;;;;;1.80;1.00;;;16.60;94.40;;;;;;4687433;30;20530;-85
2022/07/11 06:02:12;;;;;;;2.33;1.05;;;16.70;94.70;;;;;;4687574;30;20110;-84
2022/07/11 06:04:38;;;;;;;2.92;1.40;;;16.80;94.70;;;;;;4703080;30;20704;-84
2022/07/11 06:07:08;;;;;;;4.00;1.48;;;16.90;94.70;;;;;;4703329;30;20379;-84
2022/07/11 06:09:34;;;;;;;1.20;0.70;;;17.60;93.10;;;;;;4703103;30;20456;-83
2022/07/11 06:12:00;;;;;;;2.67;1.00;;;17.10;92.10;;;;;;4703024;30;20048;-83
2022/07/11 06:14:26;;;;;;;2.28;1.10;;;17.20;92.00;;;;;;4702811;30;20051;-86
2022/07/11 06:16:52;;;;;;;2.67;1.38;;;17.30;91.90;;;;;;4702792;30;20041;-85
2022/07/11 06:19:18;;;;;;;2.92;1.20;;;17.50;91.70;;;;;;4702437;30;20097;-84
2022/07/11 06:21:44;;;;;;;3.97;1.27;;;17.50;91.00;;;;;;4687063;30;20488;-83
2022/07/11 06:24:10;;;;;;;3.28;1.02;;;17.70;90.90;;;;;;4687117;30;20398;-83
2022/07/11 06:26:36;;;;;;;3.35;0.98;;;17.90;90.10;;;;;;4687802;30;20673;-86
2022/07/11 06:29:02;;;;;;;1.30;0.80;;;18.00;89.30;;;;;;4687922;30;20050;-83
2022/07/11 06:31:31;;;;;;;3.53;1.35;;;18.10;88.10;;;;;;4688017;30;20238;-84
2022/07/11 06:33:57;;;;;;;2.00;0.88;;;18.10;88.10;;;;;;4703379;30;20037;-84
2022/07/11 06:36:26;;;;;;;2.15;1.00;;;18.10;88.10;;;;;;4702734;30;20429;-84
2022/07/11 06:39:01;;;;;;;1.90;1.13;;;18.20;87.50;;;;;;4685578;30;20236;-83
2022/07/11 06:41:27;;;;;;;1.38;0.93;;;18.10;86.10;;;;;;4702141;30;20049;-83
2022/07/11 06:43:53;;;;;;;1.50;0.80;;;18.20;85.00;;;;;;4686895;30;20052;-84
2022/07/11 06:46:18;;;;;;;5.80;1.10;;;18.20;84.10;;;;;;4702656;30;20492;-84
2022/07/11 06:48:47;;;;;;;1.58;0.90;;;18.30;83.90;;;;;;4686671;30;20049;-83
2022/07/11 06:51:24;;;;;;;0.98;0.80;;;18.40;82.70;;;;;;4686690;30;20608;-85
2022/07/11 06:53:51;;;;;;;3.00;1.35;;;18.10;81.70;;;;;;4686826;30;20044;-82
2022/07/11 06:56:17;;;;;;;1.67;0.95;;;18.50;83.00;;;;;;4686960;30;20514;-83
2022/07/11 06:58:43;;;;;;;1.80;1.23;;;18.70;81.40;;;;;;4702037;30;20128;-83
2022/07/11 07:01:09;;;;;;;3.42;0.98;;;18.80;81.10;;;;;;4685775;30;20049;-84
2022/07/11 07:03:35;;;;;;;1.38;0.70;;;18.70;78.30;;;;;;4702211;30;20072;-85
2022/07/11 07:06:01;;;;;;;3.42;1.33;;;18.60;77.90;;;;;;4686249;30;20624;-82
2022/07/11 07:08:30;;;;;;;2.47;0.90;;;18.90;75.60;;;;;;4686672;30;20041;-83
2022/07/11 07:10:59;;;;;;;3.40;1.10;;;19.00;76.20;;;;;;4702172;30;20537;-83
2022/07/11 07:13:28;;;;;;;2.45;1.15;;;20.70;77.90;;;;;;4702317;30;20063;-84
2022/07/11 07:15:55;;;;;;;1.35;0.80;;;19.40;78.20;;;;;;4702337;30;20033;-84
2022/07/11 07:18:26;;;;;;;1.67;1.08;;;19.70;76.30;;;;;;4701868;30;20468;-83
2022/07/11 07:20:59;;;;;;;2.05;1.30;;;19.80;75.20;;;;;;4702455;30;20054;-84
2022/07/11 07:23:25;;;;;;;3.78;1.02;;;;;;;;;;4702372;30;20343;-84
2022/07/11 07:25:51;;;;;;;3.08;1.08;;;19.60;74.00;;;;;;4702606;30;20045;-83
2022/07/11 07:28:19;;;;;;;1.17;0.70;;;19.50;75.00;;;;;;4686805;30;20058;-82
2022/07/11 07:30:47;;;;;;;1.52;0.90;;;17.10;72.30;;;;;;4702468;30;20421;-83
2022/07/11 07:33:25;;;;;;;0.55;0.50;;;19.40;71.90;;;;;;4686734;30;20521;-85
2022/07/11 07:35:50;;;;;;;0.85;0.70;;;18.50;70.80;;;;;;4702415;30;20393;-81
2022/07/11 07:38:16;;;;;;;3.10;1.52;;;19.50;70.80;;;;;;4702134;30;20191;-83
2022/07/11 07:40:42;;;;;;;1.70;0.85;;;21.80;71.20;;;;;;4701995;30;20402;-84
2022/07/11 07:43:08;;;;;;;0.98;0.60;;;19.80;68.40;;;;;;4686749;30;20477;-82
2022/07/11 07:45:34;;;;;;;2.75;1.05;;;19.80;68.40;;;;;;4702334;30;20140;-83
2022/07/11 07:47:59;;;;;;;1.58;0.80;;;19.80;67.60;;;;;;4686278;30;20064;-84
2022/07/11 07:50:31;;;;;;;1.58;0.70;;;19.80;63.90;;;;;;4703395;30;20271;-84
2022/07/11 07:52:57;;;;;;;0.90;0.60;;;19.70;64.40;;;;;;4689414;30;20113;-83
2022/07/11 07:55:23;;;;;;;1.75;0.50;;;19.70;65.00;;;;;;4689321;30;20041;-84
2022/07/11 07:57:48;;;;;;;3.88;0.52;;;19.60;64.20;;;;;;4705453;30;20215;-82
2022/07/11 08:03:08;;;;;;;1.50;0.90;;;19.80;63.60;;;;;;4705013;30;20136;-85
2022/07/11 08:05:39;;;;;;;2.55;0.93;;;19.70;62.70;;;;;;4688837;30;20064;-82
2022/07/11 08:08:11;;;;;;;0.93;0.52;;;19.80;61.30;;;;;;4689382;30;20261;-82
2022/07/11 08:10:40;;;;;;;1.33;0.63;;;20.20;59.60;;;;;;4692556;25;21693;-84
2022/07/11 08:13:09;;;;;;;1.30;0.60;;;20.70;61.00;;;;;;4671503;30;20142;-81
2022/07/11 08:15:35;;;;;;;1.35;0.60;;;20.40;61.30;;;;;;4688362;30;20041;-86
2022/07/11 08:18:01;;;;;;;1.10;0.60;;;20.60;61.50;;;;;;4672345;30;20358;-82
2022/07/11 08:20:26;;;;;;;1.42;0.80;;;20.60;59.90;;;;;;4671936;30;20132;-82
2022/07/11 08:22:52;;;;;;;1.83;1.00;;;20.70;61.20;;;;;;4687478;30;20061;-84
2022/07/11 08:25:18;;;;;;;1.95;0.70;;;20.60;61.30;;;;;;4687340;30;20323;-83
2022/07/11 08:27:55;;;;;;;1.45;0.80;;;20.80;60.80;;;;;;4671647;30;20124;-84
2022/07/11 08:30:32;;;;;;;1.33;0.63;;;20.90;61.40;;;;;;4687173;30;20259;-80
2022/07/11 08:32:58;;;;;;;1.42;0.70;;;20.90;60.50;;;;;;4712062;25;20064;-83
2022/07/11 08:35:27;;;;;;;1.27;0.75;;;20.90;60.80;;;;;;4688904;30;20362;-83
2022/07/11 08:37:53;;;;;;;1.67;0.80;;;20.90;59.20;;;;;;4704635;30;20041;-83
2022/07/11 08:40:21;;;;;;;1.52;0.70;;;21.20;59.90;;;;;;4704440;30;20041;-82
2022/07/11 08:42:47;;;;;;;2.05;0.35;;;21.50;59.00;;;;;;4688706;30;20261;-83
2022/07/11 08:45:17;;;;;;;2.72;0.75;;;21.60;58.80;;;;;;4704515;30;20117;-85
2022/07/11 08:47:58;;;;;;;1.80;0.63;;;21.60;58.30;;;;;;4688612;30;20386;-84
2022/07/11 08:50:27;;;;;;;1.10;0.63;;;21.30;58.30;;;;;;4688549;30;20346;-84
2022/07/11 08:52:58;;;;;;;1.77;0.65;;;21.10;58.20;;;;;;4704168;30;20603;-82
2022/07/11 08:55:26;;;;;;;1.45;0.70;;;21.00;58.50;;;;;;4704045;30;20045;-83
2022/07/11 08:58:01;;;;;;;2.25;0.90;;;21.10;58.70;;;;;;4704381;30;20091;-82
2022/07/11 09:00:27;;;;;;;2.08;1.00;;;21.20;59.60;;;;;;4688366;30;20049;-82
2022/07/11 09:02:53;;;;;;;1.85;0.90;;;21.00;59.20;;;;;;4687394;30;20045;-84
2022/07/11 09:05:19;;;;;;;2.65;0.60;;;20.90;58.60;;;;;;4687854;30;20067;-83
2022/07/11 09:07:49;;;;;;;0.85;0.50;;;20.90;58.30;;;;;;4704055;30;20037;-82
2022/07/11 09:10:16;;;;;;;0.77;0.60;;;21.00;57.20;;;;;;4688165;30;20095;-83
2022/07/11 09:13:14;;;;;;;1.27;0.82;;;21.30;56.50;;;;;;4689128;30;20037;-83
2022/07/11 09:15:49;;;;;;;2.10;0.75;;;21.30;57.00;;;;;;4704683;30;20045;-83
2022/07/11 09:18:35;;;;;;;0.75;0.60;;;21.30;57.20;;;;;;4689468;25;20062;-83
2022/07/11 09:26:51;;;;;;;1.90;0.57;;;21.60;56.60;;;;;;4686848;30;20147;-85
2022/07/11 09:29:21;;;;;;;1.15;0.52;;;21.70;54.90;;;;;;4685386;30;20508;-85
2022/07/11 09:31:49;;;;;;;1.63;0.73;;;21.70;55.30;;;;;;4686526;30;20271;-83
2022/07/11 09:34:27;;;;;;;2.78;1.30;;;21.50;55.00;;;;;;4670595;30;20044;-86
2022/07/11 09:36:57;;;;;;;2.72;0.93;;;21.50;55.40;;;;;;4670429;30;20270;-83
2022/07/11 09:39:28;;;;;;;3.13;0.80;;;21.40;54.90;;;;;;4686037;30;20062;-82
2022/07/11 09:41:55;;;;;;;1.08;0.63;;;21.10;55.10;;;;;;4669956;30;20048;-85
2022/07/11 09:44:24;;;;;;;1.48;0.70;;;21.00;55.30;;;;;;4670676;30;20049;-84
2022/07/11 09:46:53;;;;;;;1.13;0.60;;;20.90;55.70;;;;;;4685865;30;20415;-84
2022/07/11 09:49:32;;;;;;;1.45;0.70;;;21.00;55.20;;;;;;4686511;30;20232;-87
2022/07/11 09:52:17;;;;;;;1.67;0.57;;;21.00;54.90;;;;;;4687443;30;20033;-84
2022/07/11 09:54:56;;;;;;;1.38;0.60;;;21.20;55.10;;;;;;4685825;30;20052;-84
2022/07/11 09:57:48;;;;;;;1.15;0.70;;;21.30;54.90;;;;;;4671261;30;20108;-82
2022/07/11 10:00:14;;;;;;;2.47;0.65;;;21.20;54.50;;;;;;4668133;30;20530;-82
2022/07/11 10:02:41;;;;;;;1.33;0.80;;;21.10;54.60;;;;;;4685933;30;20037;-84
2022/07/11 10:05:07;;;;;;;1.75;0.77;;;21.30;55.10;;;;;;4685886;30;20565;-83
2022/07/11 10:07:33;;;;;;;1.50;0.70;;;21.70;55.20;;;;;;4686063;30;20034;-82
2022/07/11 10:12:55;;;;;;;1.48;0.70;;;22.10;54.10;;;;;;4631419;30;20047;-84
2022/07/11 10:15:44;;;;;;;1.48;1.17;;;22.10;54.10;;;;;;4631496;30;20194;-83
2022/07/11 10:18:35;;;;;;;1.08;0.70;;;22.00;53.90;;;;;;4617066;30;20519;-82
2022/07/11 10:21:12;;;;;;;3.20;0.65;;;22.10;53.50;;;;;;4617302;30;20078;-84
2022/07/11 10:23:56;;;;;;;1.75;0.80;;;22.10;53.70;;;;;;4642860;25;20034;-82
2022/07/11 10:26:56;;;;;;;1.30;0.70;;;22.20;53.80;;;;;;4685364;30;20227;-82
2022/07/11 10:32:04;;;;;;;1.52;0.70;;;22.50;52.90;;;;;;4705773;25;20560;-84
2022/07/11 10:34:30;;;;;;;1.05;0.70;;;22.30;53.80;;;;;;4702295;30;20045;-81
2022/07/11 10:37:00;;;;;;;1.08;0.88;;;22.20;53.70;;;;;;4702457;30;20041;-82
2022/07/11 10:39:27;;;;;;;2.40;0.90;;;22.30;54.10;;;;;;4702615;30;20141;-84
2022/07/11 10:41:57;;;;;;;4.45;0.80;;;22.40;54.70;;;;;;4702700;30;20037;-82
2022/07/11 10:44:23;;;;;;;1.25;0.88;;;22.30;54.40;;;;;;4703920;30;20052;-85
2022/07/11 10:46:49;;;;;;;3.42;0.93;;;22.20;53.40;;;;;;4701860;30;20424;-82
2022/07/11 10:49:40;;;;;;;1.25;0.55;;;22.00;53.60;;;;;;4702062;30;20037;-83
2022/07/11 10:52:08;;;;;;;1.80;0.90;;;21.80;53.80;;;;;;4702371;30;20076;-83
2022/07/11 10:54:33;;;;;;;0.35;0.35;;;21.90;54.40;;;;;;4703095;30;20095;-82
2022/07/11 10:57:02;;;;;;;1.63;0.88;;;21.90;55.60;;;;;;4701620;30;20045;-82
2022/07/11 10:59:28;;;;;;;2.17;0.90;;;21.80;54.40;;;;;;4702867;30;20057;-81
2022/07/11 11:02:12;;;;;;;3.15;0.90;;;21.50;54.90;;;;;;4702951;30;20048;-82
2022/07/11 11:04:50;;;;;;;2.03;0.60;;;21.30;55.80;;;;;;4701766;30;20586;-83
2022/07/11 11:07:36;;;;;;;1.42;0.80;;;21.30;55.00;;;;;;4702856;30;20041;-85
2022/07/11 11:13:13;;;;;;;1.90;1.02;;;21.40;55.60;;;;;;4703901;30;20041;-85
2022/07/11 11:16:13;;;;;;;4.47;1.00;;;21.40;55.00;;;;;;4703576;30;20034;-82
2022/07/11 11:18:54;;;;;;;1.23;0.73;;;21.30;54.80;;;;;;4683735;30;20076;-84
2022/07/11 11:21:21;;;;;;;1.83;0.75;;;22.40;52.00;;;;;;4707383;30;20552;-83
2022/07/11 11:24:03;;;;;;;4.30;1.27;;;22.40;52.50;;;;;;4704990;30;20553;-82
2022/07/11 11:26:50;;;;;;;0.80;0.60;;;22.80;53.40;;;;;;4689971;30;20362;-81
2022/07/11 11:29:24;;;;;;;6.50;0.82;;;23.40;51.00;;;;;;4691333;30;20216;-84
2022/07/11 11:31:57;;;;;;;1.58;0.73;;;23.60;49.00;;;;;;4702346;30;20172;-83
2022/07/11 11:34:24;;;;;;;2.33;0.80;;;23.40;49.70;;;;;;4723964;30;20033;-84
2022/07/11 11:36:59;;;;;;;0.85;0.70;;;23.70;49.90;;;;;;4725774;30;20075;-83
2022/07/11 11:39:29;;;;;;;3.00;0.90;;;24.10;47.90;;;;;;4724408;30;20057;-83
2022/07/11 11:42:17;;;;;;;3.53;0.75;;;24.10;48.10;;;;;;4726477;30;20322;-84
2022/07/11 11:45:02;;;;;;;3.35;0.90;;;24.40;48.70;;;;;;4720323;25;20069;-82
2022/07/11 11:47:31;;;;;;;2.63;0.88;;;24.80;48.30;;;;;;4674793;30;20672;-83
2022/07/11 11:50:09;;;;;;;4.00;1.33;;;25.10;46.50;;;;;;4675233;30;20299;-83
2022/07/11 11:52:45;;;;;;;0.95;0.65;;;25.10;46.10;;;;;;4675102;30;20509;-83
2022/07/11 11:55:11;;;;;;;1.85;0.60;;;25.30;46.40;;;;;;4675246;30;20445;-84
2022/07/11 11:57:39;;;;;;;1.17;0.70;;;25.50;46.60;;;;;;4690952;30;20414;-83
2022/07/11 12:00:21;;;;;;;1.20;0.80;;;25.70;46.00;;;;;;4674913;30;20254;-82
2022/07/11 12:02:50;;;;;;;2.00;0.70;;;25.90;45.30;;;;;;4673860;30;20320;-85
2022/07/11 12:05:28;;;;;;;0.80;0.60;;;25.90;44.70;;;;;;4689234;30;20065;-84
2022/07/11 12:07:54;;;;;;;2.53;0.80;;;25.90;44.90;;;;;;4673475;30;20077;-82
2022/07/11 12:10:23;;;;;;;2.67;0.73;;;26.50;44.80;;;;;;4688943;30;20037;-83
2022/07/11 12:12:52;;;;;;;3.05;1.00;;;24.40;42.10;;;;;;4688223;30;20514;-84
2022/07/11 12:15:31;;;;;;;2.70;0.95;;;26.90;43.10;;;;;;4673045;30;20303;-82
2022/07/11 12:18:01;;;;;;;3.08;1.00;;;26.70;44.00;;;;;;4687935;30;20514;-81
2022/07/11 12:20:41;;;;;;;3.10;0.90;;;26.70;43.70;;;;;;4672265;30;20073;-84
2022/07/11 12:23:09;;;;;;;3.60;0.82;;;26.70;43.30;;;;;;4671973;30;20335;-84
2022/07/11 12:25:45;;;;;;;2.72;1.02;;;26.90;43.20;;;;;;4687667;30;20220;-85
2022/07/11 12:28:10;;;;;;;1.38;0.65;;;27.20;44.00;;;;;;4687529;30;20113;-85
2022/07/11 12:30:38;;;;;;;0.70;0.60;;;27.00;43.10;;;;;;4687976;30;20133;-83
2022/07/11 12:33:04;;;;;;;2.75;0.70;;;26.80;42.80;;;;;;4671830;30;20034;-86
2022/07/11 12:35:34;;;;;;;2.45;0.88;;;27.10;43.10;;;;;;4687291;30;20088;-84
2022/07/11 12:38:00;;;;;;;1.25;0.60;;;27.50;42.10;;;;;;4686434;30;20053;-85
2022/07/11 12:40:33;;;;;;;0.73;0.57;;;27.50;41.10;;;;;;4671424;30;20104;-81
2022/07/11 12:42:59;;;;;;;2.63;0.75;;;27.60;40.80;;;;;;4671555;30;20279;-84
2022/07/11 12:45:25;;;;;;;4.68;1.02;;;27.80;41.70;;;;;;4687318;30;20073;-84
2022/07/11 12:48:00;;;;;;;2.63;0.93;;;27.60;41.90;;;;;;4687368;30;20274;-84
2022/07/11 12:50:42;;;;;;;1.55;0.80;;;27.90;42.20;;;;;;4671275;30;20045;-82
2022/07/11 12:53:08;;;;;;;1.60;0.70;;;28.10;42.30;;;;;;4671207;30;20496;-83
2022/07/11 12:55:35;;;;;;;2.25;0.75;;;28.10;41.20;;;;;;4686863;30;20605;-84
2022/07/11 12:58:08;;;;;;;4.05;1.08;;;28.00;41.60;;;;;;4686701;30;20044;-84
2022/07/11 13:00:36;;;;;;;1.75;0.77;;;27.60;41.40;;;;;;4672519;30;20104;-82
2022/07/11 13:03:13;;;;;;;1.63;0.70;;;27.80;41.60;;;;;;4689153;30;20042;-85
2022/07/11 13:05:50;;;;;;;3.05;0.70;;;27.60;41.60;;;;;;4686724;30;20521;-83
2022/07/11 13:08:52;;;;;;;3.90;1.30;;;27.70;41.80;;;;;;4687718;30;20517;-83
2022/07/11 13:11:31;;;;;;;2.63;0.60;;;27.80;41.30;;;;;;4670683;30;20474;-83
2022/07/11 13:15:08;;;;;;;2.30;0.77;;;27.90;40.80;;;;;;4686816;30;20576;-81